Reklama

Seznam meteostanic a jejich METAR

Vyhledat místa podle abecedy:
A B C D E F G H I J K L M N O P Q R S T U V W X Y Z

Filtrovat:

ID stanice:
a/nebo
Název místa (fulltext):
 
Místo (ID)Naposledy načteno 
Yamoussoukro (DIYO) 15.11.2018 12:00 UTC Zobrazit METAR
DIYO 151200Z 22006KT 9999 BKN013 29/23 Q1011 NOSIG
Yangon (VYYY) 15.11.2018 12:00 UTC Zobrazit METAR
VYYY 151200Z 27002KT 7000 NSC 31/25 Q1010
Yaounde (FKYS) 15.11.2018 12:00 UTC Zobrazit METAR
FKYS 151200Z /////KT 8000 BKN020 30/22 Q1013 NOSIG
Yerevan (UGEE) Zatím nenačteno  
Reklama

Počasí na Váš email

Emaily jsou bez reklamy a bez spamu



Odhlásit newsletter

Reklama


Lunární kalendář

  • 23.11.
  • 30.11.
  • 07.12.
  • 15.12.



Reklama


Reklama
Povinné ručení
Reklama



Reklama